createdAt,value
2019-03-08T00:02:25.343Z,96841.81
2019-03-08T00:04:53.729Z,96840.70
2019-03-08T00:07:22.187Z,96844.16
2019-03-08T00:09:50.767Z,96838.63
2019-03-08T00:12:19.244Z,96845.57
2019-03-08T00:14:47.694Z,96845.09
2019-03-08T00:17:16.080Z,96851.91
2019-03-08T00:19:44.487Z,96859.13
2019-03-08T00:22:12.935Z,96856.52
2019-03-08T00:24:41.332Z,96846.71
2019-03-08T00:27:09.750Z,96850.55
2019-03-08T00:29:38.196Z,96854.83
2019-03-08T00:32:06.610Z,96848.05
2019-03-08T00:34:35.022Z,96842.93
2019-03-08T00:37:03.403Z,96850.60
2019-03-08T00:39:31.818Z,96849.77
2019-03-08T00:42:00.204Z,96848.48
2019-03-08T00:44:28.708Z,96845.93
2019-03-08T00:46:57.199Z,96850.63
2019-03-08T00:49:25.594Z,96847.20
2019-03-08T00:51:53.992Z,96849.73
2019-03-08T00:54:22.388Z,96848.05
2019-03-08T00:56:50.788Z,96852.27
2019-03-08T00:59:19.176Z,96848.44
2019-03-08T01:01:47.632Z,96842.46
2019-03-08T01:04:16.052Z,96847.10
2019-03-08T01:06:44.444Z,96844.16
2019-03-08T01:09:13.168Z,96848.38
2019-03-08T01:11:41.561Z,96845.82
2019-03-08T01:14:09.942Z,96836.90
2019-03-08T01:16:38.330Z,96830.12
2019-03-08T01:19:06.716Z,96833.09
2019-03-08T01:21:35.127Z,96836.59
2019-03-08T01:24:03.515Z,96834.42
2019-03-08T01:26:31.961Z,96826.36
2019-03-08T01:29:00.358Z,96731.66
2019-03-08T01:31:28.744Z,96830.25
2019-03-08T01:33:57.307Z,96831.92
2019-03-08T01:36:25.698Z,96851.16
2019-03-08T01:38:54.127Z,96853.34
2019-03-08T01:41:22.583Z,96852.09
2019-03-08T01:43:50.967Z,96862.38
2019-03-08T01:46:19.349Z,96867.48
2019-03-08T01:48:47.743Z,96868.32
2019-03-08T01:51:16.135Z,96870.06
2019-03-08T01:53:44.511Z,96869.63
2019-03-08T01:56:12.895Z,96864.93
2019-03-08T01:58:41.273Z,96867.91
2019-03-08T02:01:09.758Z,96862.77
2019-03-08T02:03:38.140Z,96861.05
2019-03-08T02:06:06.606Z,96856.73
2019-03-08T02:08:35.068Z,96858.44
2019-03-08T02:11:03.524Z,96855.88
2019-03-08T02:13:31.903Z,96854.59
2019-03-08T02:16:00.293Z,96863.96
2019-03-08T02:18:28.734Z,96858.44
2019-03-08T02:21:06.256Z,96856.27
2019-03-08T02:23:27.529Z,96858.41
2019-03-08T02:25:55.910Z,96860.09
2019-03-08T02:28:24.304Z,96864.83
2019-03-08T02:30:52.684Z,96863.96
2019-03-08T02:33:21.068Z,96865.69
2019-03-08T02:35:49.453Z,96858.91
2019-03-08T02:38:17.842Z,96857.66
2019-03-08T02:40:46.402Z,96862.80
2019-03-08T02:43:17.211Z,96855.98
2019-03-08T02:45:45.580Z,96852.15
2019-03-08T02:48:14.058Z,96846.62
2019-03-08T02:50:42.645Z,96853.01
2019-03-08T02:53:11.035Z,96853.45
2019-03-08T02:55:39.426Z,96848.37
2019-03-08T02:58:07.813Z,96845.00
2019-03-08T03:00:41.923Z,96841.58
2019-03-08T03:03:10.304Z,96840.30
2019-03-08T03:05:38.705Z,96846.72
2019-03-08T03:08:07.257Z,96846.36
2019-03-08T03:10:35.650Z,96846.38
2019-03-08T03:13:04.207Z,96846.80
2019-03-08T03:15:32.597Z,96846.82
2019-03-08T03:18:00.976Z,96857.94
2019-03-08T03:20:29.370Z,96857.10
2019-03-08T03:22:58.024Z,96853.69
2019-03-08T03:25:26.406Z,96861.35
2019-03-08T03:27:54.806Z,96861.77
2019-03-08T03:30:23.275Z,96867.73
2019-03-08T03:32:51.803Z,96866.46
2019-03-08T03:35:20.249Z,96870.74
2019-03-08T03:37:48.907Z,96873.30
2019-03-08T03:40:18.842Z,96868.21
2019-03-08T03:42:47.227Z,96866.08
2019-03-08T03:45:20.420Z,96870.72
2019-03-08T03:47:48.864Z,96869.39
2019-03-08T03:50:18.553Z,96872.18
2019-03-08T03:52:47.200Z,96864.41
2019-03-08T03:55:17.718Z,96859.55
2019-03-08T03:57:46.166Z,96858.92
2019-03-08T04:00:19.786Z,96860.50
2019-03-08T04:02:48.183Z,96859.55
2019-03-08T04:05:16.643Z,96867.92
2019-03-08T04:07:45.139Z,96866.11
2019-03-08T04:10:15.357Z,96868.91
2019-03-08T04:12:43.747Z,96864.05
2019-03-08T04:15:16.385Z,96867.39
2019-03-08T04:17:45.222Z,96875.84
2019-03-08T04:20:15.238Z,96875.39
2019-03-08T04:22:43.624Z,96882.15
2019-03-08T04:25:13.243Z,96881.25
2019-03-08T04:27:41.969Z,96880.00
2019-03-08T04:30:21.236Z,96879.97
2019-03-08T04:32:49.612Z,96883.40
2019-03-08T04:35:18.065Z,96881.22
2019-03-08T04:37:46.450Z,96897.45
2019-03-08T04:40:15.204Z,96902.15
2019-03-08T04:42:43.847Z,96902.20
2019-03-08T04:45:13.968Z,96908.22
2019-03-08T04:47:42.423Z,96906.05
2019-03-08T04:50:17.266Z,96901.34
2019-03-08T04:52:45.647Z,96906.47
2019-03-08T04:55:16.899Z,96905.13
2019-03-08T04:57:46.204Z,96902.56
2019-03-08T05:00:17.338Z,96908.97
2019-03-08T05:02:45.727Z,96906.37
2019-03-08T05:05:14.194Z,96914.41
2019-03-08T05:07:42.577Z,96912.75
2019-03-08T05:10:16.078Z,96923.79
2019-03-08T05:12:44.535Z,96929.27
2019-03-08T05:15:13.234Z,96933.44
2019-03-08T05:17:41.629Z,96937.70
2019-03-08T05:20:10.951Z,96928.31
2019-03-08T05:22:39.344Z,96937.63
2019-03-08T05:25:10.216Z,96935.45
2019-03-08T05:27:38.591Z,96941.00
2019-03-08T05:30:13.140Z,96940.16
2019-03-08T05:32:41.524Z,96943.98
2019-03-08T05:35:10.743Z,96951.66
2019-03-08T05:37:39.217Z,96947.40
2019-03-08T05:40:10.819Z,96946.12
2019-03-08T05:42:39.201Z,96949.03
2019-03-08T05:45:09.521Z,96955.77
2019-03-08T05:47:37.941Z,96956.18
2019-03-08T05:50:10.917Z,96960.02
2019-03-08T05:52:39.403Z,96963.39
2019-03-08T05:55:09.623Z,96963.39
2019-03-08T05:57:38.002Z,96964.19
2019-03-08T06:00:11.771Z,96968.39
2019-03-08T06:02:40.201Z,96975.21
2019-03-08T06:05:08.722Z,96977.30
2019-03-08T06:07:37.501Z,96973.87
2019-03-08T06:10:26.948Z,96984.44
2019-03-08T06:12:55.394Z,96988.22
2019-03-08T06:15:23.873Z,96988.58
2019-03-08T06:17:52.253Z,96992.36
2019-03-08T06:20:20.637Z,96994.02
2019-03-08T06:22:49.021Z,96993.99
2019-03-08T06:25:17.404Z,97002.96
2019-03-08T06:27:45.831Z,97003.34
2019-03-08T06:30:14.593Z,97000.34
2019-03-08T06:32:42.999Z,97005.78
2019-03-08T06:35:11.667Z,97009.05
2019-03-08T06:37:40.049Z,97008.89
2019-03-08T06:40:13.527Z,97021.64
2019-03-08T06:42:41.938Z,97022.86
2019-03-08T06:45:13.056Z,97027.92
2019-03-08T06:47:41.559Z,97026.55
2019-03-08T06:50:12.075Z,97029.88
2019-03-08T06:52:40.473Z,97028.95
2019-03-08T06:55:11.508Z,97033.17
2019-03-08T06:57:39.917Z,97032.28
2019-03-08T07:00:19.961Z,97033.88
2019-03-08T07:02:48.335Z,97043.23
2019-03-08T07:05:16.735Z,97051.66
2019-03-08T07:07:45.127Z,97056.69
2019-03-08T07:10:13.591Z,97064.77
2019-03-08T07:12:41.950Z,97071.98
2019-03-08T07:15:10.402Z,97073.69
2019-03-08T07:17:38.778Z,97087.24
2019-03-08T07:20:09.532Z,97084.96
2019-03-08T07:22:51.617Z,97089.54
2019-03-08T07:25:37.913Z,97097.17
2019-03-08T07:28:24.580Z,97110.22
2019-03-08T07:30:57.952Z,97110.52
2019-03-08T07:33:26.348Z,97104.39
2019-03-08T07:36:12.863Z,97111.11
2019-03-08T07:38:42.948Z,97117.80
2019-03-08T07:41:13.021Z,97120.13
2019-03-08T07:43:49.167Z,97127.27
2019-03-08T07:46:31.263Z,97135.55
2019-03-08T07:49:01.334Z,97140.84
2019-03-08T07:51:31.381Z,97143.11
2019-03-08T07:54:01.528Z,97145.75
2019-03-08T07:56:31.862Z,97157.98
2019-03-08T07:59:04.899Z,97148.38
2019-03-08T08:01:40.686Z,97151.21
2019-03-08T08:04:10.827Z,97148.52
2019-03-08T08:06:52.876Z,97166.02
2019-03-08T08:09:25.581Z,97164.63
2019-03-08T08:12:12.082Z,97169.47
2019-03-08T08:14:45.182Z,97177.32
2019-03-08T08:17:17.928Z,97191.09
2019-03-08T08:19:50.683Z,97204.37
2019-03-08T08:22:20.715Z,97220.66
2019-03-08T08:24:50.728Z,97227.93
2019-03-08T08:27:20.746Z,97231.75
2019-03-08T08:29:50.766Z,97235.48
2019-03-08T08:32:23.206Z,97242.59
2019-03-08T08:34:55.927Z,97232.72
2019-03-08T08:37:26.013Z,97239.19
2019-03-08T08:40:04.954Z,97232.27
2019-03-08T08:42:52.858Z,97248.08
2019-03-08T08:45:37.780Z,97250.65
2019-03-08T08:48:15.057Z,97241.72
2019-03-08T08:51:01.410Z,97249.59
2019-03-08T08:53:34.547Z,97247.97
2019-03-08T08:56:10.074Z,97221.20
2019-03-08T08:58:40.093Z,97242.75
2019-03-08T09:01:13.089Z,97253.68
2019-03-08T09:03:43.107Z,97253.02
2019-03-08T09:06:13.140Z,97244.11
2019-03-08T09:08:48.894Z,97249.38
2019-03-08T09:11:21.658Z,97247.02
2019-03-08T09:13:54.825Z,97248.89
2019-03-08T09:16:28.014Z,97246.84
2019-03-08T09:19:04.010Z,97236.19
2019-03-08T09:21:34.039Z,97241.86
2019-03-08T09:24:06.791Z,97249.59
2019-03-08T09:26:45.751Z,97248.08
2019-03-08T09:29:18.223Z,97254.90
2019-03-08T09:31:48.241Z,97260.80
2019-03-08T09:34:30.183Z,97275.88
2019-03-08T09:37:00.387Z,97273.73
2019-03-08T09:39:33.053Z,97271.97
2019-03-08T09:42:03.076Z,97266.31
2019-03-08T09:44:39.505Z,97283.85
2019-03-08T09:47:09.607Z,97293.15
2019-03-08T09:49:39.648Z,97291.17
2019-03-08T09:52:15.609Z,97297.06
2019-03-08T09:54:48.790Z,97299.69
2019-03-08T09:57:27.806Z,97304.11
2019-03-08T10:00:03.778Z,97310.27
2019-03-08T10:02:39.463Z,97305.90
2019-03-08T10:05:26.125Z,97309.67
2019-03-08T10:08:01.887Z,97318.52
2019-03-08T10:10:34.576Z,97308.83
2019-03-08T10:13:07.577Z,97308.55
2019-03-08T10:15:37.597Z,97313.42
2019-03-08T10:18:12.172Z,97299.42
2019-03-08T10:20:48.074Z,97319.03
2019-03-08T10:23:22.129Z,97314.70
2019-03-08T10:25:55.169Z,97310.42
2019-03-08T10:28:42.194Z,97319.86
2019-03-08T10:31:27.357Z,97313.77
2019-03-08T10:33:59.427Z,97313.12
2019-03-08T10:36:32.195Z,97318.66
2019-03-08T10:39:02.538Z,97316.20
2019-03-08T10:41:36.177Z,97319.55
2019-03-08T10:44:15.606Z,97314.28
2019-03-08T10:46:52.273Z,97313.00
2019-03-08T10:49:25.365Z,97329.27
2019-03-08T10:51:56.529Z,97327.20
2019-03-08T10:54:38.016Z,97255.66
2019-03-08T10:57:11.333Z,97332.25
2019-03-08T10:59:41.692Z,97332.91
2019-03-08T11:02:18.783Z,97338.22
2019-03-08T11:04:51.763Z,97334.27
2019-03-08T11:07:35.134Z,97341.23
2019-03-08T11:10:11.310Z,97346.55
2019-03-08T11:12:53.946Z,97337.70
2019-03-08T11:15:42.411Z,97351.84
2019-03-08T11:18:12.569Z,97342.98
2019-03-08T11:20:47.980Z,97342.70
2019-03-08T11:23:21.981Z,97342.17
2019-03-08T11:25:58.817Z,97339.82
2019-03-08T11:28:44.838Z,97354.44
2019-03-08T11:31:23.792Z,97355.66
2019-03-08T11:34:03.348Z,97363.20
2019-03-08T11:36:36.027Z,97354.58
2019-03-08T11:39:09.185Z,97353.34
2019-03-08T11:41:54.610Z,97350.16
2019-03-08T11:44:31.419Z,97351.33
2019-03-08T11:47:09.160Z,97345.09
2019-03-08T11:49:42.539Z,97344.52
2019-03-08T11:52:33.279Z,97342.62
2019-03-08T11:55:21.122Z,97346.13
2019-03-08T11:58:00.251Z,97350.25
2019-03-08T12:00:46.142Z,97352.27
2019-03-08T12:03:26.043Z,97356.44
2019-03-08T12:06:13.630Z,97357.68
2019-03-08T12:08:46.623Z,97352.36
2019-03-08T12:11:34.876Z,97361.96
2019-03-08T12:14:04.930Z,97354.64
2019-03-08T12:16:50.221Z,97354.38
2019-03-08T12:19:26.309Z,97356.70
2019-03-08T12:21:58.054Z,97351.22
2019-03-08T12:24:33.922Z,97354.58
2019-03-08T12:27:19.437Z,97356.17
2019-03-08T12:29:52.336Z,97360.98
2019-03-08T12:32:38.469Z,97359.48
2019-03-08T12:35:21.958Z,97360.55
2019-03-08T12:37:52.691Z,97351.75
2019-03-08T12:40:28.087Z,97350.43
2019-03-08T12:43:07.646Z,97347.39
2019-03-08T12:45:34.151Z,97353.92
2019-03-08T12:48:23.810Z,97355.79
2019-03-08T12:50:51.517Z,97329.28
2019-03-08T12:53:38.686Z,97338.22
2019-03-08T12:56:11.690Z,97340.03
2019-03-08T12:58:56.902Z,97334.52
2019-03-08T13:01:32.250Z,97330.69
2019-03-08T13:04:12.124Z,97341.56
2019-03-08T13:06:58.670Z,97345.44
2019-03-08T13:09:40.961Z,97336.45
2019-03-08T13:12:10.318Z,97329.58
2019-03-08T13:14:39.016Z,97334.75
2019-03-08T13:17:07.467Z,97331.45
2019-03-08T13:19:38.604Z,97333.91
2019-03-08T13:22:07.329Z,97337.99
2019-03-08T13:24:37.152Z,97346.50
2019-03-08T13:27:07.902Z,97351.80
2019-03-08T13:29:39.126Z,97346.85
2019-03-08T13:32:08.183Z,97353.86
2019-03-08T13:34:40.130Z,97348.91
2019-03-08T13:37:09.071Z,97274.02
2019-03-08T13:39:41.063Z,97337.67
2019-03-08T13:42:09.682Z,97345.17
2019-03-08T13:44:38.065Z,97338.30
2019-03-08T13:47:10.690Z,97336.17
2019-03-08T13:49:44.346Z,97350.51
2019-03-08T13:52:12.878Z,97353.72
2019-03-08T13:54:41.257Z,97347.84
2019-03-08T13:57:09.638Z,97351.73
2019-03-08T13:59:38.273Z,97348.03
2019-03-08T14:02:06.739Z,97342.90
2019-03-08T14:04:35.132Z,97347.11
2019-03-08T14:07:03.528Z,97335.53
2019-03-08T14:09:31.933Z,97336.88
2019-03-08T14:12:00.340Z,97336.81
2019-03-08T14:14:28.806Z,97331.33
2019-03-08T14:16:57.341Z,97335.64
2019-03-08T14:19:25.752Z,97336.98
2019-03-08T14:21:54.172Z,97338.80
2019-03-08T14:24:22.564Z,97346.16
2019-03-08T14:26:50.953Z,97358.34
2019-03-08T14:29:22.270Z,97368.55
2019-03-08T14:31:51.387Z,97395.66
2019-03-08T14:34:19.800Z,97415.45
2019-03-08T14:36:48.181Z,97418.53
2019-03-08T14:39:16.552Z,97390.94
2019-03-08T14:41:46.577Z,97386.28
2019-03-08T14:44:19.623Z,97375.95
2019-03-08T14:46:52.987Z,97386.61
2019-03-08T14:49:24.172Z,97383.60
2019-03-08T14:51:52.759Z,97386.97
2019-03-08T14:54:21.442Z,97382.59
2019-03-08T14:56:49.833Z,97381.70
2019-03-08T14:59:18.222Z,97392.82
2019-03-08T15:01:46.714Z,97382.80
2019-03-08T15:04:15.089Z,97381.36
2019-03-08T15:06:43.489Z,97384.07
2019-03-08T15:09:12.635Z,97382.58
2019-03-08T15:11:41.119Z,97388.42
2019-03-08T15:14:09.506Z,97402.98
2019-03-08T15:16:39.225Z,97398.66
2019-03-08T15:19:08.076Z,97405.02
2019-03-08T15:21:37.122Z,97414.41
2019-03-08T15:24:06.241Z,97419.17
2019-03-08T15:26:34.635Z,97425.67
2019-03-08T15:29:03.083Z,97418.34
2019-03-08T15:31:31.469Z,97425.17
2019-03-08T15:33:59.887Z,97425.98
2019-03-08T15:36:28.265Z,97426.87
2019-03-08T15:38:58.804Z,97419.91
2019-03-08T15:41:26.756Z,97427.55
2019-03-08T15:43:55.215Z,97425.78
2019-03-08T15:46:23.676Z,97428.74
2019-03-08T15:48:53.053Z,97436.02
2019-03-08T15:51:25.190Z,97435.97
2019-03-08T15:53:54.334Z,97438.97
2019-03-08T15:56:22.964Z,97436.02
2019-03-08T15:58:51.358Z,97444.59
2019-03-08T16:01:19.741Z,97442.90
2019-03-08T16:03:48.131Z,97442.52
2019-03-08T16:06:16.513Z,97456.33
2019-03-08T16:08:45.088Z,97461.95
2019-03-08T16:11:13.472Z,97469.80
2019-03-08T16:13:41.938Z,97481.11
2019-03-08T16:16:10.406Z,97488.95
2019-03-08T16:18:40.237Z,97507.42
2019-03-08T16:21:08.944Z,97523.45
2019-03-08T16:23:39.041Z,97515.02
2019-03-08T16:26:07.442Z,97531.99
2019-03-08T16:28:36.041Z,97522.29
2019-03-08T16:31:09.001Z,97520.81
2019-03-08T16:33:45.002Z,97524.95
2019-03-08T16:36:30.992Z,97526.05
2019-03-08T16:39:06.886Z,97527.08
2019-03-08T16:41:39.381Z,97530.64
2019-03-08T16:44:11.900Z,97539.27
2019-03-08T16:46:57.770Z,97535.79
2019-03-08T16:49:27.558Z,97535.79
2019-03-08T16:51:57.337Z,97547.98
2019-03-08T16:54:36.060Z,97546.42
2019-03-08T16:57:22.431Z,97564.17
2019-03-08T17:00:01.349Z,97562.16
2019-03-08T17:02:46.682Z,97562.29
2019-03-08T17:05:19.356Z,97565.88
2019-03-08T17:07:52.128Z,97568.52
2019-03-08T17:10:27.834Z,97571.98
2019-03-08T17:13:03.810Z,97579.78
2019-03-08T17:15:55.329Z,97572.09
2019-03-08T17:18:25.640Z,97581.55
2019-03-08T17:21:13.867Z,97585.89
2019-03-08T17:23:43.879Z,97590.27
2019-03-08T17:26:13.902Z,97599.70
2019-03-08T17:28:49.701Z,97592.78
2019-03-08T17:31:19.728Z,97597.12
2019-03-08T17:34:06.121Z,97604.01
2019-03-08T17:36:38.829Z,97606.20
2019-03-08T17:39:13.022Z,97611.80
2019-03-08T17:42:01.215Z,97612.76
2019-03-08T17:44:49.593Z,97629.06
2019-03-08T17:47:19.609Z,97623.17
2019-03-08T17:49:49.627Z,97626.23
2019-03-08T17:52:35.971Z,97623.72
2019-03-08T17:55:12.822Z,97625.51
2019-03-08T17:58:00.966Z,97610.79
2019-03-08T18:00:33.946Z,97632.09
2019-03-08T18:03:03.969Z,97637.74
2019-03-08T18:05:34.063Z,97642.55
2019-03-08T18:08:16.018Z,97642.61
2019-03-08T18:10:54.764Z,97641.80
2019-03-08T18:13:27.466Z,97647.84
2019-03-08T18:16:00.170Z,97656.92
2019-03-08T18:18:30.196Z,97653.13
2019-03-08T18:21:00.231Z,97650.19
2019-03-08T18:23:30.291Z,97655.80
2019-03-08T18:26:03.127Z,97658.42
2019-03-08T18:28:33.137Z,97665.78
2019-03-08T18:31:04.807Z,97668.81
2019-03-08T18:33:41.613Z,97675.72
2019-03-08T18:36:14.052Z,97674.06
2019-03-08T18:38:59.873Z,97679.23
2019-03-08T18:41:43.041Z,97675.00
2019-03-08T18:44:18.723Z,97674.63
2019-03-08T18:46:54.689Z,97678.52
2019-03-08T18:49:33.725Z,97675.58
2019-03-08T18:52:19.907Z,97684.20
2019-03-08T18:54:52.826Z,97685.11
2019-03-08T18:57:22.850Z,97691.14
2019-03-08T19:00:08.258Z,97688.20
2019-03-08T19:02:50.646Z,97697.23
2019-03-08T19:05:35.939Z,97696.84
2019-03-08T19:08:11.919Z,97705.41
2019-03-08T19:10:51.264Z,97697.28
2019-03-08T19:13:25.954Z,97697.31
2019-03-08T19:15:56.091Z,97714.92
2019-03-08T19:18:42.581Z,97720.11
2019-03-08T19:21:24.618Z,97715.83
2019-03-08T19:24:10.543Z,97706.47
2019-03-08T19:26:55.691Z,97709.47
2019-03-08T19:29:34.634Z,97709.93
2019-03-08T19:32:22.580Z,97715.09
2019-03-08T19:35:07.627Z,97723.67
2019-03-08T19:37:46.486Z,97735.70
2019-03-08T19:40:16.560Z,97745.97
2019-03-08T19:43:04.678Z,97744.27
2019-03-08T19:45:50.236Z,97747.77
2019-03-08T19:48:29.395Z,97740.95
2019-03-08T19:51:02.189Z,97740.14
2019-03-08T19:53:50.140Z,97754.75
2019-03-08T19:56:36.669Z,97752.22
2019-03-08T19:59:18.808Z,97750.99
2019-03-08T20:02:04.059Z,97756.56
2019-03-08T20:04:34.204Z,97752.34
2019-03-08T20:07:16.335Z,97751.55
2019-03-08T20:09:55.674Z,97759.27
2019-03-08T20:12:25.758Z,97760.98
2019-03-08T20:14:58.294Z,97759.36
2019-03-08T20:17:37.091Z,97763.69
2019-03-08T20:20:22.011Z,97765.86
2019-03-08T20:22:54.888Z,97772.73
2019-03-08T20:25:24.908Z,97771.48
2019-03-08T20:27:57.620Z,97776.62
2019-03-08T20:30:27.707Z,97768.49
2019-03-08T20:33:13.937Z,97768.49
2019-03-08T20:35:44.002Z,97769.34
2019-03-08T20:38:25.851Z,97773.20
2019-03-08T20:40:55.928Z,97770.63
2019-03-08T20:43:25.994Z,97772.38
2019-03-08T20:46:07.870Z,97766.81
2019-03-08T20:48:36.257Z,97762.16
2019-03-08T20:51:04.639Z,97755.36
2019-03-08T20:53:33.143Z,97751.09
2019-03-08T20:56:01.573Z,97746.81
2019-03-08T20:58:29.963Z,97742.98
2019-03-08T21:00:58.500Z,97748.12
2019-03-08T21:03:27.109Z,97743.92
2019-03-08T21:05:56.801Z,97740.10
2019-03-08T21:08:25.279Z,97743.96
2019-03-08T21:10:54.663Z,97746.94
2019-03-08T21:13:23.055Z,97744.44
2019-03-08T21:15:51.587Z,97755.55
2019-03-08T21:18:19.968Z,97756.41
2019-03-08T21:20:48.460Z,97747.89
2019-03-08T21:23:16.879Z,97746.61
2019-03-08T21:25:45.382Z,97747.06
2019-03-08T21:28:13.845Z,97747.94
2019-03-08T21:30:42.243Z,97746.22
2019-03-08T21:33:10.847Z,97744.53
2019-03-08T21:35:39.432Z,97744.92
2019-03-08T21:38:08.027Z,97738.52
2019-03-08T21:40:36.554Z,97738.09
2019-03-08T21:43:05.118Z,97737.66
2019-03-08T21:45:33.491Z,97747.48
2019-03-08T21:48:01.951Z,97753.90
2019-03-08T21:50:31.566Z,97756.48
2019-03-08T21:53:00.175Z,97744.56
2019-03-08T21:55:28.563Z,97749.73
2019-03-08T21:57:57.043Z,97744.17
2019-03-08T22:00:27.229Z,97743.77
2019-03-08T22:02:55.817Z,97746.33
2019-03-08T22:05:25.920Z,97753.97
2019-03-08T22:07:54.353Z,97751.02
2019-03-08T22:10:30.627Z,97753.13
2019-03-08T22:12:59.038Z,97756.97
2019-03-08T22:15:27.517Z,97756.12
2019-03-08T22:17:56.096Z,97747.98
2019-03-08T22:20:24.630Z,97751.38
2019-03-08T22:22:53.045Z,97744.12
2019-03-08T22:25:23.737Z,97735.13
2019-03-08T22:27:52.473Z,97740.68
2019-03-08T22:30:21.512Z,97739.40
2019-03-08T22:32:50.174Z,97743.23
2019-03-08T22:35:18.711Z,97739.38
2019-03-08T22:37:47.142Z,97729.94
2019-03-08T22:40:15.709Z,97728.66
2019-03-08T22:42:44.086Z,97734.23
2019-03-08T22:45:12.848Z,97735.52
2019-03-08T22:47:41.259Z,97740.19
2019-03-08T22:50:14.863Z,97738.45
2019-03-08T22:52:43.420Z,97726.48
2019-03-08T22:55:13.759Z,97727.34
2019-03-08T22:57:42.175Z,97720.92
2019-03-08T23:00:27.040Z,97722.20
2019-03-08T23:02:55.858Z,97728.64
2019-03-08T23:05:24.713Z,97726.52
2019-03-08T23:07:53.080Z,97726.91
2019-03-08T23:10:21.476Z,97722.66
2019-03-08T23:12:49.894Z,97726.48
2019-03-08T23:15:18.496Z,97717.05
2019-03-08T23:17:46.878Z,97712.77
2019-03-08T23:20:15.265Z,97714.05
2019-03-08T23:22:43.668Z,97708.53
2019-03-08T23:25:12.055Z,97709.41
2019-03-08T23:27:42.121Z,97706.45
2019-03-08T23:30:12.624Z,97702.64
2019-03-08T23:32:42.329Z,97700.56
2019-03-08T23:35:10.770Z,97697.63
2019-03-08T23:37:39.193Z,97700.23
2019-03-08T23:40:08.752Z,97695.14
2019-03-08T23:42:37.133Z,97690.89
2019-03-08T23:45:07.567Z,97695.20
2019-03-08T23:47:35.941Z,97701.64
2019-03-08T23:50:06.257Z,97707.24
2019-03-08T23:52:34.666Z,97709.38
2019-03-08T23:55:03.254Z,97708.95
2019-03-08T23:57:31.658Z,97709.84
